createdAt,value
2023-02-26T00:01:30.012Z,1.50
2023-02-26T00:03:58.627Z,1.67
2023-02-26T00:06:27.277Z,2.08
2023-02-26T00:08:55.476Z,2.05
2023-02-26T00:11:23.443Z,1.90
2023-02-26T00:13:51.191Z,2.00
2023-02-26T00:16:26.388Z,1.88
2023-02-26T00:18:54.326Z,1.90
2023-02-26T00:21:23.645Z,2.10
2023-02-26T00:23:51.514Z,1.88
2023-02-26T00:26:19.412Z,1.88
2023-02-26T00:28:48.162Z,2.10
2023-02-26T00:31:16.414Z,2.00
2023-02-26T00:33:45.307Z,1.95
2023-02-26T00:36:22.013Z,2.30
2023-02-26T00:39:02.347Z,2.25
2023-02-26T00:41:30.181Z,1.90
2023-02-26T00:43:58.089Z,2.03
2023-02-26T00:46:44.672Z,2.03
2023-02-26T00:49:30.654Z,2.00
2023-02-26T00:52:03.474Z,2.13
2023-02-26T00:54:31.530Z,1.90
2023-02-26T00:56:59.813Z,1.63
2023-02-26T00:59:27.647Z,1.48
2023-02-26T01:01:55.314Z,1.50
2023-02-26T01:04:24.386Z,1.58
2023-02-26T01:06:53.460Z,1.50
2023-02-26T01:09:25.691Z,1.60
2023-02-26T01:11:54.339Z,1.35
2023-02-26T01:14:22.589Z,1.55
2023-02-26T01:16:56.242Z,1.58
2023-02-26T01:19:26.577Z,1.40
2023-02-26T01:21:57.396Z,1.45
2023-02-26T01:24:25.440Z,1.58
2023-02-26T01:26:54.455Z,1.63
2023-02-26T01:29:22.141Z,1.77
2023-02-26T01:31:54.024Z,1.33
2023-02-26T01:34:21.648Z,1.63
2023-02-26T01:36:59.104Z,1.63
2023-02-26T01:39:30.259Z,1.27
2023-02-26T01:42:14.299Z,1.58
2023-02-26T01:44:41.853Z,1.70
2023-02-26T01:47:15.313Z,1.42
2023-02-26T01:49:43.113Z,1.42
2023-02-26T01:52:29.425Z,1.50
2023-02-26T01:54:56.996Z,1.33
2023-02-26T01:57:24.749Z,1.60
2023-02-26T01:59:53.423Z,1.90
2023-02-26T02:02:25.535Z,1.80
2023-02-26T02:04:54.338Z,1.50
2023-02-26T02:07:22.123Z,1.58
2023-02-26T02:09:49.691Z,1.52
2023-02-26T02:12:23.108Z,1.77
2023-02-26T02:14:56.761Z,1.50
2023-02-26T02:17:27.409Z,1.60
2023-02-26T02:20:13.512Z,1.20
2023-02-26T02:22:52.744Z,1.50
2023-02-26T02:25:35.224Z,1.60
2023-02-26T02:28:15.635Z,1.50
2023-02-26T02:31:03.280Z,1.50
2023-02-26T02:33:49.990Z,1.30
2023-02-26T02:36:36.218Z,1.42
2023-02-26T02:39:10.467Z,1.40
2023-02-26T02:41:46.880Z,2.08
2023-02-26T02:44:17.958Z,1.70
2023-02-26T02:46:47.335Z,1.63
2023-02-26T02:49:26.242Z,1.50
2023-02-26T02:51:56.329Z,1.45
2023-02-26T02:54:30.805Z,1.25
2023-02-26T02:57:16.328Z,1.70
2023-02-26T02:59:49.069Z,1.63
2023-02-26T03:02:35.454Z,1.20
2023-02-26T03:05:03.163Z,1.40
2023-02-26T03:07:35.477Z,1.38
2023-02-26T03:10:03.067Z,1.23
2023-02-26T03:12:33.772Z,1.42
2023-02-26T03:15:01.964Z,1.40
2023-02-26T03:17:34.734Z,1.23
2023-02-26T03:20:05.654Z,1.42
2023-02-26T03:22:53.862Z,1.50
2023-02-26T03:25:53.623Z,1.40
2023-02-26T03:28:48.556Z,1.27
2023-02-26T03:31:19.559Z,1.30
2023-02-26T03:33:47.262Z,1.50
2023-02-26T03:36:19.081Z,1.60
2023-02-26T03:38:54.715Z,1.48
2023-02-26T03:41:31.757Z,1.13
2023-02-26T03:44:05.145Z,1.20
2023-02-26T03:46:36.117Z,1.30
2023-02-26T03:49:07.899Z,1.25
2023-02-26T03:51:36.755Z,1.65
2023-02-26T03:54:39.765Z,1.33
2023-02-26T03:57:33.678Z,1.63
2023-02-26T04:03:02.948Z,1.20
2023-02-26T04:05:33.612Z,1.60
2023-02-26T04:08:01.371Z,1.45
2023-02-26T04:10:39.077Z,1.30
2023-02-26T04:13:06.716Z,1.60
2023-02-26T04:15:34.281Z,1.50
2023-02-26T04:18:01.934Z,1.55
2023-02-26T04:20:30.123Z,1.33
2023-02-26T04:22:57.890Z,1.70
2023-02-26T04:25:25.574Z,1.40
2023-02-26T04:27:54.118Z,2.17
2023-02-26T04:30:21.754Z,1.50
2023-02-26T04:32:49.381Z,1.20
2023-02-26T04:35:17.588Z,1.42
2023-02-26T04:37:45.196Z,1.08
2023-02-26T04:40:13.038Z,1.83
2023-02-26T04:42:40.832Z,1.67
2023-02-26T04:45:08.791Z,1.33
2023-02-26T04:47:38.639Z,1.27
2023-02-26T04:50:06.845Z,1.42
2023-02-26T04:52:34.845Z,1.33
2023-02-26T04:55:03.112Z,2.10
2023-02-26T04:57:30.736Z,1.20
2023-02-26T04:59:58.367Z,1.20
2023-02-26T05:02:31.082Z,1.48
2023-02-26T05:04:58.714Z,1.33
2023-02-26T05:07:26.295Z,1.63
2023-02-26T05:09:53.875Z,1.42
2023-02-26T05:12:21.449Z,1.63
2023-02-26T05:14:49.560Z,1.20
2023-02-26T05:17:17.282Z,1.45
2023-02-26T05:19:44.878Z,1.40
2023-02-26T05:22:12.591Z,1.85
2023-02-26T05:24:41.538Z,1.38
2023-02-26T05:27:09.117Z,1.48
2023-02-26T05:29:44.697Z,1.40
2023-02-26T05:32:14.015Z,1.63
2023-02-26T05:34:41.654Z,1.60
2023-02-26T05:37:09.283Z,1.48
2023-02-26T05:39:36.898Z,1.60
2023-02-26T05:42:04.556Z,1.33
2023-02-26T05:44:32.145Z,1.63
2023-02-26T05:46:59.792Z,1.80
2023-02-26T05:49:27.518Z,1.33
2023-02-26T05:51:55.266Z,1.77
2023-02-26T05:54:22.848Z,1.67
2023-02-26T05:56:50.625Z,1.33
2023-02-26T05:59:19.199Z,1.73
2023-02-26T06:01:46.869Z,1.50
2023-02-26T06:04:14.543Z,1.60
2023-02-26T06:06:42.098Z,1.60
2023-02-26T06:09:09.676Z,1.90
2023-02-26T06:11:39.525Z,1.45
2023-02-26T06:14:07.359Z,1.40
2023-02-26T06:16:35.849Z,1.65
2023-02-26T06:19:03.671Z,1.63
2023-02-26T06:21:31.387Z,1.65
2023-02-26T06:23:59.042Z,1.60
2023-02-26T06:26:26.874Z,1.40
2023-02-26T06:28:54.701Z,1.63
2023-02-26T06:31:22.270Z,1.60
2023-02-26T06:33:49.821Z,1.60
2023-02-26T06:36:17.477Z,1.80
2023-02-26T06:38:45.436Z,1.52
2023-02-26T06:41:13.733Z,1.58
2023-02-26T06:43:41.291Z,1.42
2023-02-26T06:46:08.948Z,1.67
2023-02-26T06:48:36.538Z,1.60
2023-02-26T06:51:05.570Z,1.45
2023-02-26T06:53:36.816Z,1.70
2023-02-26T06:56:04.611Z,1.48
2023-02-26T06:58:32.220Z,1.27
2023-02-26T07:00:59.786Z,1.65
2023-02-26T07:03:27.391Z,1.60
2023-02-26T07:05:55.000Z,1.50
2023-02-26T07:08:24.039Z,1.40
2023-02-26T07:10:51.657Z,1.52
2023-02-26T07:13:19.249Z,1.30
2023-02-26T07:15:46.800Z,1.63
2023-02-26T07:18:14.410Z,1.60
2023-02-26T07:20:42.807Z,1.88
2023-02-26T07:23:10.392Z,1.48
2023-02-26T07:25:38.053Z,1.60
2023-02-26T07:28:05.712Z,1.50
2023-02-26T07:30:33.756Z,1.40
2023-02-26T07:33:01.424Z,1.60
2023-02-26T07:35:29.013Z,1.60
2023-02-26T07:37:56.581Z,1.63
2023-02-26T07:40:24.191Z,1.20
2023-02-26T07:42:51.738Z,1.60
2023-02-26T07:45:22.422Z,1.42
2023-02-26T07:47:50.544Z,1.50
2023-02-26T07:50:18.268Z,1.50
2023-02-26T07:52:46.746Z,1.60
2023-02-26T07:55:14.360Z,1.30
2023-02-26T07:57:42.018Z,1.70
2023-02-26T08:00:10.082Z,1.50
2023-02-26T08:02:40.367Z,1.70
2023-02-26T08:05:08.045Z,1.52
2023-02-26T08:07:35.633Z,2.13
2023-02-26T08:10:03.181Z,1.80
2023-02-26T08:12:31.163Z,1.70
2023-02-26T08:14:58.717Z,1.50
2023-02-26T08:17:26.326Z,2.00
2023-02-26T08:19:53.895Z,1.88
2023-02-26T08:22:22.092Z,1.83
2023-02-26T08:24:50.300Z,2.05
2023-02-26T08:27:17.850Z,1.80
2023-02-26T08:29:46.322Z,1.70
2023-02-26T08:32:15.892Z,1.73
2023-02-26T08:34:44.146Z,1.70
2023-02-26T08:37:11.795Z,1.52
2023-02-26T08:39:39.885Z,1.60
2023-02-26T08:42:07.909Z,1.70
2023-02-26T08:44:35.515Z,1.77
2023-02-26T08:47:03.745Z,1.95
2023-02-26T08:49:31.487Z,1.80
2023-02-26T08:51:59.156Z,1.90
2023-02-26T08:54:26.947Z,1.75
2023-02-26T08:56:55.872Z,1.60
2023-02-26T08:59:23.464Z,2.10
2023-02-26T09:01:51.290Z,1.80
2023-02-26T09:04:18.998Z,2.00
2023-02-26T09:06:46.622Z,2.00
2023-02-26T09:09:14.304Z,1.80
2023-02-26T09:11:41.993Z,1.55
2023-02-26T09:14:09.817Z,2.03
2023-02-26T09:16:37.591Z,1.98
2023-02-26T09:19:06.924Z,1.88
2023-02-26T09:21:35.717Z,1.80
2023-02-26T09:24:03.321Z,2.00
2023-02-26T09:26:30.873Z,1.95
2023-02-26T09:28:58.431Z,1.55
2023-02-26T09:31:26.104Z,1.85
2023-02-26T09:33:53.727Z,2.05
2023-02-26T09:36:21.466Z,1.90
2023-02-26T09:38:49.025Z,2.10
2023-02-26T09:41:23.021Z,2.05
2023-02-26T09:44:08.802Z,2.05
2023-02-26T09:46:39.478Z,2.05
2023-02-26T09:49:30.305Z,2.30
2023-02-26T09:52:04.550Z,2.10
2023-02-26T09:54:34.773Z,2.55
2023-02-26T09:57:03.280Z,2.17
2023-02-26T09:59:34.329Z,2.55
2023-02-26T10:02:28.739Z,2.25
2023-02-26T10:05:07.072Z,2.38
2023-02-26T10:07:46.341Z,2.75
2023-02-26T10:10:13.878Z,2.25
2023-02-26T10:12:42.674Z,2.30
2023-02-26T10:15:18.923Z,2.42
2023-02-26T10:17:46.476Z,2.38
2023-02-26T10:20:29.098Z,2.42
2023-02-26T10:22:59.679Z,2.58
2023-02-26T10:25:30.611Z,1.98
2023-02-26T10:28:05.005Z,2.30
2023-02-26T10:30:38.135Z,1.75
2023-02-26T10:33:17.922Z,1.90
2023-02-26T10:35:52.669Z,2.10
2023-02-26T10:38:28.398Z,2.25
2023-02-26T10:41:05.385Z,1.95
2023-02-26T10:43:38.554Z,2.00
2023-02-26T10:46:06.181Z,1.92
2023-02-26T10:48:47.315Z,2.10
2023-02-26T10:51:19.999Z,1.90
2023-02-26T10:53:51.560Z,2.40
2023-02-26T10:56:23.148Z,1.98
2023-02-26T10:58:52.230Z,2.00
2023-02-26T11:01:21.264Z,2.30
2023-02-26T11:03:51.566Z,2.15
2023-02-26T11:06:22.499Z,2.15
2023-02-26T11:08:52.783Z,2.20
2023-02-26T11:11:39.244Z,1.70
2023-02-26T11:14:08.436Z,1.90
2023-02-26T11:16:36.571Z,2.10
2023-02-26T11:19:06.301Z,2.10
2023-02-26T11:21:39.415Z,2.00
2023-02-26T11:24:13.422Z,1.80
2023-02-26T11:26:45.637Z,1.98
2023-02-26T11:29:18.988Z,1.98
2023-02-26T11:31:51.903Z,2.00
2023-02-26T11:34:22.807Z,2.28
2023-02-26T11:36:50.668Z,1.75
2023-02-26T11:39:20.215Z,1.80
2023-02-26T11:41:48.952Z,1.70
2023-02-26T11:44:18.590Z,1.80
2023-02-26T11:46:48.295Z,1.67
2023-02-26T11:49:17.403Z,1.88
2023-02-26T11:51:48.546Z,1.67
2023-02-26T11:54:28.049Z,1.52
2023-02-26T11:57:03.246Z,1.48
2023-02-26T11:59:32.528Z,1.88
2023-02-26T12:02:06.868Z,1.73
2023-02-26T12:04:34.512Z,1.80
2023-02-26T12:07:02.072Z,1.80
2023-02-26T12:09:29.610Z,1.55
2023-02-26T12:12:16.168Z,1.70
2023-02-26T12:14:57.894Z,1.80
2023-02-26T12:17:48.834Z,1.60
2023-02-26T12:20:19.843Z,1.15
2023-02-26T12:22:56.251Z,1.35
2023-02-26T12:25:42.276Z,1.20
2023-02-26T12:28:22.108Z,1.15
2023-02-26T12:30:55.977Z,0.90
2023-02-26T12:33:23.585Z,0.98
2023-02-26T12:35:58.120Z,1.02
2023-02-26T12:38:44.372Z,1.27
2023-02-26T12:41:17.506Z,1.10
2023-02-26T12:43:52.669Z,1.10
2023-02-26T12:46:23.360Z,1.20
2023-02-26T12:49:02.200Z,1.13
2023-02-26T12:51:29.794Z,1.20
2023-02-26T12:54:00.178Z,0.90
2023-02-26T12:56:30.597Z,1.00
2023-02-26T12:59:24.342Z,0.90
2023-02-26T13:02:00.936Z,0.98
2023-02-26T13:04:30.063Z,1.02
2023-02-26T13:07:03.421Z,1.00
2023-02-26T13:09:34.402Z,1.05
2023-02-26T13:12:11.352Z,1.10
2023-02-26T13:14:57.773Z,1.10
2023-02-26T13:17:29.061Z,1.10
2023-02-26T13:19:58.747Z,1.40
2023-02-26T13:22:29.055Z,1.48
2023-02-26T13:25:05.031Z,1.20
2023-02-26T13:27:34.530Z,1.40
2023-02-26T13:30:10.682Z,1.30
2023-02-26T13:32:38.811Z,1.58
2023-02-26T13:35:26.752Z,1.55
2023-02-26T13:37:56.314Z,1.50
2023-02-26T13:40:53.186Z,1.60
2023-02-26T13:43:30.662Z,1.70
2023-02-26T13:45:58.526Z,1.70
2023-02-26T13:48:32.307Z,1.70
2023-02-26T13:51:15.019Z,1.92
2023-02-26T13:53:42.638Z,2.08
2023-02-26T13:56:16.319Z,1.70
2023-02-26T13:58:45.137Z,2.22
2023-02-26T14:01:17.364Z,2.10
2023-02-26T14:03:51.067Z,1.98
2023-02-26T14:06:26.443Z,1.83
2023-02-26T14:08:58.372Z,1.67
2023-02-26T14:11:29.012Z,1.58
2023-02-26T14:14:15.391Z,1.95
2023-02-26T14:16:44.809Z,1.60
2023-02-26T14:19:21.563Z,1.83
2023-02-26T14:21:50.684Z,1.80
2023-02-26T14:24:36.355Z,1.85
2023-02-26T14:27:23.935Z,1.90
2023-02-26T14:29:58.124Z,1.70
2023-02-26T14:32:41.151Z,1.65
2023-02-26T14:35:35.241Z,1.70
2023-02-26T14:38:12.520Z,1.95
2023-02-26T14:40:43.275Z,1.52
2023-02-26T14:43:15.868Z,1.50
2023-02-26T14:45:45.803Z,1.50
2023-02-26T14:48:18.643Z,1.20
2023-02-26T14:51:04.990Z,1.23
2023-02-26T14:53:51.644Z,1.20
2023-02-26T14:56:49.999Z,1.23
2023-02-26T14:59:31.384Z,1.13
2023-02-26T15:02:17.841Z,1.20
2023-02-26T15:04:51.334Z,1.38
2023-02-26T15:07:19.173Z,1.45
2023-02-26T15:09:54.428Z,1.45
2023-02-26T15:12:40.843Z,1.70
2023-02-26T15:15:17.486Z,1.30
2023-02-26T15:17:45.036Z,1.48
2023-02-26T15:20:29.725Z,1.52
2023-02-26T15:22:57.227Z,1.50
2023-02-26T15:25:41.517Z,1.70
2023-02-26T15:28:13.201Z,1.60
2023-02-26T15:30:42.001Z,1.70
2023-02-26T15:33:16.175Z,1.77
2023-02-26T15:35:44.026Z,2.10
2023-02-26T15:38:11.798Z,1.88
2023-02-26T15:40:39.622Z,1.60
2023-02-26T15:43:08.353Z,1.90
2023-02-26T15:45:40.980Z,1.90
2023-02-26T15:48:10.671Z,1.50
2023-02-26T15:50:42.146Z,1.90
2023-02-26T15:53:13.338Z,1.70
2023-02-26T15:55:46.609Z,1.70
2023-02-26T15:58:17.832Z,1.70
2023-02-26T16:00:45.511Z,1.60
2023-02-26T16:03:13.100Z,1.80
2023-02-26T16:05:41.277Z,1.83
2023-02-26T16:08:11.345Z,1.70
2023-02-26T16:10:43.548Z,1.40
2023-02-26T16:13:15.282Z,1.85
2023-02-26T16:18:14.009Z,1.60
2023-02-26T16:20:44.516Z,3.90
2023-02-26T16:23:17.191Z,1.70
2023-02-26T16:26:03.814Z,2.65
2023-02-26T16:28:37.797Z,1.80
2023-02-26T16:31:09.267Z,1.77
2023-02-26T16:33:38.327Z,1.70
2023-02-26T16:36:12.654Z,2.33
2023-02-26T16:38:50.633Z,1.77
2023-02-26T16:41:23.593Z,1.70
2023-02-26T16:43:57.532Z,1.75
2023-02-26T16:46:25.151Z,1.77
2023-02-26T16:48:54.211Z,1.35
2023-02-26T16:51:22.904Z,1.50
2023-02-26T16:53:58.976Z,1.85
2023-02-26T16:56:34.963Z,1.50
2023-02-26T16:59:25.631Z,1.65
2023-02-26T17:01:55.429Z,1.90
2023-02-26T17:04:28.737Z,1.80
2023-02-26T17:06:58.833Z,1.77
2023-02-26T17:09:28.038Z,1.65
2023-02-26T17:12:13.691Z,1.70
2023-02-26T17:14:46.163Z,1.58
2023-02-26T17:17:13.888Z,1.90
2023-02-26T17:19:41.485Z,1.70
2023-02-26T17:22:12.662Z,2.00
2023-02-26T17:24:44.275Z,1.48
2023-02-26T17:27:17.195Z,1.88
2023-02-26T17:29:45.971Z,1.55
2023-02-26T17:32:17.933Z,1.50
2023-02-26T17:34:45.764Z,1.50
2023-02-26T17:37:13.937Z,1.85
2023-02-26T17:39:42.243Z,1.20
2023-02-26T17:42:21.304Z,1.42
2023-02-26T17:44:48.889Z,1.60
2023-02-26T17:47:17.965Z,1.52
2023-02-26T17:49:46.585Z,1.98
2023-02-26T17:52:14.506Z,2.10
2023-02-26T17:54:42.201Z,1.98
2023-02-26T17:57:13.028Z,1.85
2023-02-26T17:59:41.172Z,1.63
2023-02-26T18:02:19.549Z,1.50
2023-02-26T18:04:47.236Z,1.67
2023-02-26T18:07:16.494Z,1.80
2023-02-26T18:09:44.944Z,1.70
2023-02-26T18:12:16.526Z,1.70
2023-02-26T18:14:44.166Z,1.60
2023-02-26T18:17:14.431Z,1.90
2023-02-26T18:19:42.771Z,1.90
2023-02-26T18:22:14.076Z,2.00
2023-02-26T18:24:42.149Z,1.70
2023-02-26T18:27:17.586Z,2.13
2023-02-26T18:29:45.169Z,2.20
2023-02-26T18:32:14.715Z,1.95
2023-02-26T18:34:42.610Z,1.90
2023-02-26T18:37:14.465Z,2.40
2023-02-26T18:39:42.111Z,2.13
2023-02-26T18:42:26.564Z,2.20
2023-02-26T18:44:54.628Z,2.40
2023-02-26T18:47:22.893Z,2.30
2023-02-26T18:49:51.261Z,1.83
2023-02-26T18:52:19.003Z,2.17
2023-02-26T18:54:46.586Z,2.25
2023-02-26T18:57:15.068Z,2.20
2023-02-26T18:59:42.670Z,2.63
2023-02-26T19:02:13.618Z,2.40
2023-02-26T19:04:42.970Z,2.70
2023-02-26T19:07:11.023Z,2.40
2023-02-26T19:09:38.603Z,2.45
2023-02-26T19:12:06.391Z,2.92
2023-02-26T19:14:34.166Z,2.70
2023-02-26T19:17:02.071Z,2.78
2023-02-26T19:19:30.177Z,2.38
2023-02-26T19:21:58.561Z,2.92
2023-02-26T19:24:26.162Z,2.80
2023-02-26T19:26:53.716Z,3.17
2023-02-26T19:29:21.309Z,2.90
2023-02-26T19:31:49.149Z,3.08
2023-02-26T19:34:16.971Z,2.92
2023-02-26T19:36:48.136Z,3.00
2023-02-26T19:39:16.565Z,3.25
2023-02-26T19:41:44.092Z,2.78
2023-02-26T19:44:11.666Z,3.20
2023-02-26T19:46:39.257Z,3.03
2023-02-26T19:49:06.836Z,3.33
2023-02-26T19:51:34.418Z,3.50
2023-02-26T19:54:02.002Z,3.65
2023-02-26T19:56:29.557Z,3.63
2023-02-26T19:58:57.349Z,3.08
2023-02-26T20:01:24.952Z,3.50
2023-02-26T20:03:52.584Z,3.58
2023-02-26T20:06:20.337Z,3.67
2023-02-26T20:08:48.233Z,3.25
2023-02-26T20:11:15.802Z,3.30
2023-02-26T20:13:43.438Z,3.33
2023-02-26T20:16:11.529Z,3.40
2023-02-26T20:18:39.565Z,3.38
2023-02-26T20:21:08.540Z,3.50
2023-02-26T20:23:37.506Z,3.65
2023-02-26T20:26:06.792Z,3.47
2023-02-26T20:28:34.517Z,3.60
2023-02-26T20:31:02.200Z,3.78
2023-02-26T20:33:33.058Z,3.58
2023-02-26T20:36:01.163Z,3.70
2023-02-26T20:38:29.396Z,3.60
2023-02-26T20:40:57.042Z,3.63
2023-02-26T20:43:25.244Z,3.75
2023-02-26T20:45:55.041Z,3.38
2023-02-26T20:48:23.167Z,3.67
2023-02-26T20:50:53.371Z,3.70
2023-02-26T20:53:21.965Z,3.10
2023-02-26T20:55:49.564Z,3.90
2023-02-26T20:58:17.340Z,3.25
2023-02-26T21:00:45.526Z,3.75
2023-02-26T21:03:13.497Z,3.65
2023-02-26T21:05:42.625Z,3.30
2023-02-26T21:08:10.546Z,3.33
2023-02-26T21:10:38.346Z,3.67
2023-02-26T21:13:05.901Z,3.50
2023-02-26T21:15:33.702Z,3.42
2023-02-26T21:18:01.298Z,3.10
2023-02-26T21:20:29.058Z,3.30
2023-02-26T21:22:56.605Z,3.53
2023-02-26T21:25:24.161Z,3.80
2023-02-26T21:27:51.737Z,3.63
2023-02-26T21:30:19.909Z,2.88
2023-02-26T21:32:47.514Z,3.28
2023-02-26T21:35:16.894Z,3.03
2023-02-26T21:37:45.085Z,3.40
2023-02-26T21:40:13.692Z,3.13
2023-02-26T21:42:41.551Z,3.05
2023-02-26T21:45:09.523Z,3.22
2023-02-26T21:47:37.522Z,3.28
2023-02-26T21:50:05.862Z,3.15
2023-02-26T21:52:33.767Z,3.20
2023-02-26T21:55:02.427Z,3.17
2023-02-26T21:57:30.087Z,3.03
2023-02-26T21:59:58.630Z,2.95
2023-02-26T22:02:26.711Z,2.88
2023-02-26T22:04:54.336Z,2.97
2023-02-26T22:07:21.943Z,3.60
2023-02-26T22:09:49.779Z,3.20
2023-02-26T22:12:17.738Z,3.10
2023-02-26T22:14:45.272Z,3.30
2023-02-26T22:17:12.948Z,3.25
2023-02-26T22:19:40.480Z,3.40
2023-02-26T22:22:09.204Z,2.88
2023-02-26T22:24:36.794Z,2.88
2023-02-26T22:27:04.468Z,3.08
2023-02-26T22:29:32.096Z,3.10
2023-02-26T22:31:59.773Z,2.80
2023-02-26T22:34:36.288Z,2.83
2023-02-26T22:37:05.559Z,3.30
2023-02-26T22:39:33.238Z,2.47
2023-02-26T22:42:00.890Z,2.50
2023-02-26T22:44:28.446Z,2.72
2023-02-26T22:46:56.092Z,2.55
2023-02-26T22:49:23.720Z,2.60
2023-02-26T22:51:51.249Z,3.08
2023-02-26T22:54:18.819Z,3.10
2023-02-26T22:56:46.371Z,2.60
2023-02-26T22:59:13.955Z,3.05
2023-02-26T23:01:41.919Z,2.97
2023-02-26T23:04:10.648Z,2.90
2023-02-26T23:06:38.294Z,2.72
2023-02-26T23:09:06.206Z,2.60
2023-02-26T23:11:33.799Z,2.95
2023-02-26T23:14:01.336Z,2.72
2023-02-26T23:16:28.961Z,2.67
2023-02-26T23:18:56.544Z,2.78
2023-02-26T23:21:24.464Z,2.80
2023-02-26T23:23:52.525Z,2.67
2023-02-26T23:26:20.138Z,2.70
2023-02-26T23:28:47.814Z,2.85
2023-02-26T23:31:15.510Z,2.58
2023-02-26T23:33:43.216Z,2.70
2023-02-26T23:36:10.888Z,2.65
2023-02-26T23:38:40.574Z,2.88
2023-02-26T23:41:08.149Z,3.17
2023-02-26T23:43:35.860Z,2.85
2023-02-26T23:46:03.530Z,3.03
2023-02-26T23:48:31.315Z,2.75
2023-02-26T23:50:58.885Z,2.92
2023-02-26T23:53:26.433Z,2.78
2023-02-26T23:55:58.566Z,3.28
2023-02-26T23:58:27.308Z,3.03
